Portknockie, United Kingdom
Current Conditions -  °F | °C
As of 2:50 AM on Monday 29 Dec 2014 (Local Time) from EGQS Reporting Station
Few Clouds Few Clouds  
Wind Chill: -4°   Ceiling: Unl
Heat Index:   Visibility: 6mi
Dew Point: -2°   Wind: 8mph
Humidity: 87%   Direction: 240°WSW
Pressure: 30.59"   Gusts: NA
Location:  57.7°N, 2.86°W
Report Text: EGQS 290250Z 24007KT 9999 FEW035 M00/M02 Q1036 BLU
Loading
Personal Weather Stations






























Interactive Weather Map New forecast layout! Learn more

10-Day Weather Forecast

Advertisements
Track Severe Weather on mobile